Time;durP1;ratioP1;P1;durP2;ratioP2;P2;SDS_P1;SDS_P2;PMS_P1;PMS_P2;Temp;Humidity;BMP_temperature;BMP_pressure;BME280_temperature;BME280_humidity;BME280_pressure;Samples;Min_cycle;Max_cycle;Signal;HPM_P1;HPM_P2
2021/08/02 00:01:47;;;;;;;3.88;3.28;;;13.50;99.90;;;;;;5053932;28;20036;-67
2021/08/02 00:04:16;;;;;;;4.10;3.55;;;13.50;99.90;;;;;;5082541;28;20067;-68
2021/08/02 00:06:49;;;;;;;7.85;3.85;;;13.60;99.90;;;;;;5081096;28;20036;-68
2021/08/02 00:09:17;;;;;;;5.18;3.88;;;13.50;99.90;;;;;;5054131;28;20037;-68
2021/08/02 00:11:50;;;;;;;9.07;4.88;;;13.60;99.90;;;;;;5061985;28;20516;-68
2021/08/02 00:14:17;;;;;;;5.68;4.40;;;13.60;99.90;;;;;;5074856;28;20526;-68
2021/08/02 00:16:43;;;;;;;9.98;4.57;;;13.70;99.90;;;;;;5095690;28;20044;-67
2021/08/02 00:19:09;;;;;;;;;;;13.60;99.90;;;;;;5087379;28;20047;-68
2021/08/02 00:21:35;;;;;;;5.57;3.83;;;13.60;99.90;;;;;;5067597;28;20435;-67
2021/08/02 00:24:01;;;;;;;;;;;13.70;99.90;;;;;;5069220;28;20033;-67
2021/08/02 00:26:27;;;;;;;5.10;4.47;;;13.70;99.90;;;;;;5068936;28;20286;-67
2021/08/02 00:28:54;;;;;;;7.97;6.50;;;13.70;99.90;;;;;;5068227;28;20041;-68
2021/08/02 00:31:20;;;;;;;7.68;5.70;;;13.60;99.90;;;;;;5067780;28;20060;-67
2021/08/02 00:33:45;;;;;;;8.60;6.88;;;13.60;99.90;;;;;;5067746;28;20040;-68
2021/08/02 00:36:17;;;;;;;;;;;13.60;99.90;;;;;;5068964;28;20397;-68
2021/08/02 00:38:51;;;;;;;8.30;6.65;;;13.60;99.90;;;;;;5067469;28;19916;-68
2021/08/02 00:41:38;;;;;;;7.10;6.03;;;13.70;99.90;;;;;;5067287;28;20043;-67
2021/08/02 00:44:41;;;;;;;9.07;7.00;;;13.70;99.90;;;;;;5068326;28;20671;-67
2021/08/02 00:47:15;;;;;;;10.80;7.53;;;13.70;99.90;;;;;;5068045;28;20049;-67
2021/08/02 00:49:50;;;;;;;9.05;6.97;;;13.70;99.90;;;;;;5068044;28;20041;-67
2021/08/02 00:52:19;;;;;;;9.80;5.97;;;13.70;99.90;;;;;;5067987;28;20072;-67
2021/08/02 00:54:46;;;;;;;6.47;5.78;;;13.70;99.90;;;;;;5067995;28;20515;-69
2021/08/02 00:57:13;;;;;;;10.13;5.43;;;13.70;99.90;;;;;;5073159;28;20055;-68
2021/08/02 00:59:42;;;;;;;6.85;4.70;;;13.70;99.90;;;;;;5089079;28;20040;-69
2021/08/02 01:02:08;;;;;;;5.82;3.97;;;13.70;99.90;;;;;;5088637;28;20036;-69
2021/08/02 01:04:36;;;;;;;5.70;4.22;;;13.70;99.90;;;;;;5091241;28;20036;-69
2021/08/02 01:07:05;;;;;;;5.57;4.18;;;13.60;99.90;;;;;;5087148;28;20055;-68
2021/08/02 01:09:31;;;;;;;9.85;4.53;;;13.70;99.90;;;;;;5069561;28;20640;-68
2021/08/02 01:11:59;;;;;;;6.80;4.20;;;13.60;99.90;;;;;;5070725;28;20043;-68
2021/08/02 01:14:25;;;;;;;5.30;4.32;;;13.70;99.90;;;;;;5068874;28;20052;-69
2021/08/02 01:16:53;;;;;;;6.97;4.13;;;13.60;99.90;;;;;;5083486;28;20128;-69
2021/08/02 01:19:19;;;;;;;7.57;5.10;;;13.60;99.90;;;;;;5066627;28;20068;-68
2021/08/02 01:21:46;;;;;;;4.20;3.70;;;13.60;99.90;;;;;;5066721;28;20041;-68
2021/08/02 01:24:13;;;;;;;8.45;4.00;;;13.60;99.90;;;;;;5067820;28;20133;-68
2021/08/02 01:26:44;;;;;;;4.07;3.17;;;13.60;99.90;;;;;;5066926;28;20052;-69
2021/08/02 01:29:47;;;;;;;7.75;4.25;;;13.60;99.90;;;;;;5065622;28;20090;-68
2021/08/02 01:32:15;;;;;;;5.50;4.00;;;13.60;99.90;;;;;;5064857;28;20155;-68
2021/08/02 01:34:41;;;;;;;7.10;3.80;;;13.60;99.90;;;;;;5066497;28;20621;-68
2021/08/02 01:37:06;;;;;;;;;;;13.60;99.90;;;;;;5066989;28;20048;-68
2021/08/02 01:39:34;;;;;;;6.88;3.75;;;13.60;99.90;;;;;;5082935;28;19923;-69
2021/08/02 01:42:03;;;;;;;5.78;3.92;;;13.60;99.90;;;;;;5066619;28;20127;-68
2021/08/02 01:44:29;;;;;;;6.88;4.38;;;13.50;99.90;;;;;;5066702;28;20067;-68
2021/08/02 01:47:33;;;;;;;;;;;13.60;99.90;;;;;;5065515;28;20068;-69
2021/08/02 01:50:07;;;;;;;7.97;5.07;;;13.50;99.90;;;;;;5023488;28;20011;-68
2021/08/02 01:52:53;;;;;;;9.35;4.32;;;13.40;99.90;;;;;;5023793;28;20114;-68
2021/08/02 01:55:21;;;;;;;8.50;4.40;;;13.40;99.90;;;;;;5051973;28;20704;-68
2021/08/02 01:57:57;;;;;;;7.30;4.50;;;13.40;99.90;;;;;;5066797;28;20040;-69
2021/08/02 02:00:23;;;;;;;8.70;5.05;;;13.50;99.90;;;;;;5066904;28;20044;-68
2021/08/02 02:02:57;;;;;;;;;;;13.40;99.90;;;;;;5066764;28;20066;-68
2021/08/02 02:05:28;;;;;;;8.93;5.15;;;13.50;99.90;;;;;;5066249;28;19965;-69
2021/08/02 02:08:41;;;;;;;9.10;5.45;;;13.50;99.90;;;;;;5066376;28;20032;-69
2021/08/02 02:11:09;;;;;;;9.55;4.95;;;13.50;99.90;;;;;;5052943;28;20055;-69
2021/08/02 02:13:38;;;;;;;8.27;4.80;;;13.50;99.90;;;;;;5065972;28;20756;-69
2021/08/02 02:16:05;;;;;;;7.20;4.47;;;13.50;99.90;;;;;;5064296;28;20131;-69
2021/08/02 02:18:34;;;;;;;11.25;6.07;;;13.50;99.90;;;;;;5066412;28;20052;-68
2021/08/02 02:21:02;;;;;;;12.05;5.78;;;13.40;99.90;;;;;;5066502;28;20041;-69
2021/08/02 02:23:28;;;;;;;10.00;5.60;;;13.40;99.90;;;;;;5066011;28;20052;-69
2021/08/02 02:25:54;;;;;;;14.05;6.03;;;13.40;99.90;;;;;;5066254;28;20045;-69
2021/08/02 02:28:20;;;;;;;;;;;13.40;99.90;;;;;;5066717;28;20048;-69
2021/08/02 02:30:48;;;;;;;7.88;5.32;;;13.30;99.90;;;;;;5064903;28;19916;-68
2021/08/02 02:33:16;;;;;;;7.60;5.18;;;13.30;99.90;;;;;;5066239;28;20040;-68
2021/08/02 02:35:44;;;;;;;10.45;5.95;;;13.30;99.90;;;;;;5065621;28;20536;-68
2021/08/02 02:38:14;;;;;;;8.57;6.40;;;13.30;99.90;;;;;;5064976;28;20756;-69
2021/08/02 02:40:43;;;;;;;11.30;5.82;;;13.30;99.90;;;;;;5065721;28;20448;-68
2021/08/02 02:43:10;;;;;;;8.20;5.50;;;13.40;99.90;;;;;;5065682;28;20622;-69
2021/08/02 02:45:37;;;;;;;6.97;5.28;;;13.40;99.90;;;;;;5065503;28;20044;-69
2021/08/02 02:48:04;;;;;;;10.35;5.45;;;13.40;99.90;;;;;;5067382;28;20100;-68
2021/08/02 02:50:31;;;;;;;6.57;5.47;;;13.40;99.90;;;;;;5068597;28;20052;-69
2021/08/02 02:52:58;;;;;;;8.55;5.45;;;13.40;99.90;;;;;;5069266;28;20036;-68
2021/08/02 02:55:25;;;;;;;8.38;5.40;;;13.40;99.90;;;;;;5067462;28;20484;-68
2021/08/02 02:57:52;;;;;;;6.50;5.13;;;13.40;99.90;;;;;;5077439;28;20079;-69
2021/08/02 03:00:19;;;;;;;6.70;5.00;;;13.30;99.90;;;;;;5086836;28;20381;-68
2021/08/02 03:02:48;;;;;;;7.10;5.07;;;13.30;99.90;;;;;;5083867;28;20075;-69
2021/08/02 03:05:15;;;;;;;6.20;5.17;;;13.40;99.90;;;;;;5086266;28;20044;-66
2021/08/02 03:07:41;;;;;;;5.75;5.15;;;13.40;99.90;;;;;;5075909;28;20122;-67
2021/08/02 03:10:08;;;;;;;5.85;4.93;;;13.40;99.90;;;;;;5065736;28;20098;-66
2021/08/02 03:12:34;;;;;;;6.70;5.15;;;13.30;99.90;;;;;;5065236;28;20671;-67
2021/08/02 03:15:01;;;;;;;7.85;4.88;;;13.30;99.90;;;;;;5065958;28;20578;-66
2021/08/02 03:17:26;;;;;;;6.03;4.82;;;13.30;99.90;;;;;;5064578;28;20055;-67
2021/08/02 03:19:52;;;;;;;;;;;13.30;99.90;;;;;;5066935;28;20040;-66
2021/08/02 03:22:41;;;;;;;6.22;4.65;;;13.20;99.90;;;;;;5064716;28;20299;-66
2021/08/02 03:25:26;;;;;;;6.82;4.57;;;13.20;99.90;;;;;;5065969;28;20037;-67
2021/08/02 03:28:13;;;;;;;6.45;4.78;;;13.20;99.90;;;;;;5065154;28;20041;-67
2021/08/02 03:30:42;;;;;;;7.90;5.30;;;13.20;99.90;;;;;;5063886;28;20048;-66
2021/08/02 03:33:13;;;;;;;9.20;4.97;;;13.20;99.90;;;;;;5064408;28;20098;-67
2021/08/02 03:35:46;;;;;;;7.13;5.10;;;13.20;99.90;;;;;;5065355;28;20105;-67
2021/08/02 03:38:15;;;;;;;6.55;5.20;;;13.10;99.90;;;;;;5080441;28;20517;-66
2021/08/02 03:40:42;;;;;;;7.63;5.38;;;13.10;99.90;;;;;;5066144;28;20040;-67
2021/08/02 03:43:09;;;;;;;9.77;6.20;;;13.10;99.90;;;;;;5064613;28;20094;-67
2021/08/02 03:45:35;;;;;;;9.20;5.80;;;13.10;99.90;;;;;;5064845;28;20118;-68
2021/08/02 03:48:02;;;;;;;8.43;4.80;;;13.20;99.90;;;;;;5065227;28;20075;-66
2021/08/02 03:50:29;;;;;;;9.52;6.80;;;13.10;99.90;;;;;;5065880;28;20068;-67
2021/08/02 03:52:55;;;;;;;19.48;11.65;;;13.10;99.90;;;;;;5066372;28;20124;-67
2021/08/02 03:55:23;;;;;;;;;;;13.10;99.90;;;;;;5069496;28;20123;-67
2021/08/02 03:57:49;;;;;;;334.67;165.23;;;13.20;99.90;;;;;;5080159;28;19916;-66
2021/08/02 04:00:15;;;;;;;;;;;13.10;99.90;;;;;;5089234;28;20647;-67
2021/08/02 04:02:40;;;;;;;51.33;27.00;;;13.10;99.90;;;;;;5088698;28;19912;-67
2021/08/02 04:05:06;;;;;;;;;;;13.10;99.90;;;;;;5089963;28;20484;-66
2021/08/02 04:07:32;;;;;;;23.10;11.45;;;13.10;99.90;;;;;;5081440;28;19930;-66
2021/08/02 04:09:57;;;;;;;;;;;13.10;99.90;;;;;;5085849;28;20067;-67
2021/08/02 04:12:23;;;;;;;10.55;6.65;;;13.10;99.90;;;;;;5068431;28;19920;-67
2021/08/02 04:14:48;;;;;;;;;;;13.00;99.90;;;;;;5069475;28;20036;-67
2021/08/02 04:17:14;;;;;;;17.20;7.88;;;13.00;99.90;;;;;;5067733;28;20007;-67
2021/08/02 04:19:39;;;;;;;;;;;12.90;99.90;;;;;;5069754;28;20039;-66
2021/08/02 04:22:05;;;;;;;19.30;11.55;;;12.90;99.90;;;;;;5068974;28;19954;-67
2021/08/02 04:24:30;;;;;;;;;;;12.90;99.90;;;;;;5069615;28;20522;-67
2021/08/02 04:26:56;;;;;;;8.95;6.63;;;12.90;99.90;;;;;;5068357;28;19920;-67
2021/08/02 04:29:21;;;;;;;;;;;12.90;99.90;;;;;;5071935;28;20097;-67
2021/08/02 04:31:47;;;;;;;198.90;106.28;;;12.90;99.90;;;;;;5070284;28;20009;-68
2021/08/02 04:34:13;;;;;;;;;;;12.90;99.90;;;;;;5069051;28;20044;-67
2021/08/02 04:36:38;;;;;;;21.30;13.07;;;13.00;99.90;;;;;;5068997;28;20292;-67
2021/08/02 04:39:04;;;;;;;;;;;12.90;99.90;;;;;;5069463;28;20040;-67
2021/08/02 04:41:30;;;;;;;9.20;6.65;;;13.00;99.90;;;;;;5068645;28;19923;-67
2021/08/02 04:43:55;;;;;;;;;;;13.00;99.90;;;;;;5069364;28;20119;-67
2021/08/02 04:46:21;;;;;;;12.10;6.32;;;13.00;99.90;;;;;;5067408;28;20006;-67
2021/08/02 04:48:46;;;;;;;;;;;13.10;99.90;;;;;;5068819;28;20076;-67
2021/08/02 04:51:12;;;;;;;11.05;6.38;;;13.00;99.90;;;;;;5068835;28;19959;-67
2021/08/02 04:53:38;;;;;;;;;;;13.00;99.90;;;;;;5067713;28;20037;-66
2021/08/02 04:56:04;;;;;;;7.40;5.47;;;13.00;99.90;;;;;;5068037;28;19916;-66
2021/08/02 04:58:30;;;;;;;9.20;6.13;;;13.00;99.90;;;;;;5067150;28;20036;-66
2021/08/02 05:00:55;;;;;;;9.43;6.20;;;13.00;99.90;;;;;;5067946;28;20043;-66
2021/08/02 05:03:21;;;;;;;;;;;13.10;99.90;;;;;;5067313;28;20612;-66
2021/08/02 05:05:46;;;;;;;8.57;6.40;;;13.10;99.90;;;;;;5067608;28;20015;-67
2021/08/02 05:08:12;;;;;;;;;;;13.10;99.90;;;;;;5067232;28;20028;-67
2021/08/02 05:10:38;;;;;;;10.55;6.60;;;13.00;99.90;;;;;;5067738;28;19920;-66
2021/08/02 05:13:03;;;;;;;;;;;13.00;99.90;;;;;;5067330;28;20703;-66
2021/08/02 05:15:29;;;;;;;17.10;10.80;;;13.10;99.90;;;;;;5067645;28;19921;-66
2021/08/02 05:17:56;;;;;;;32.35;20.98;;;13.10;99.90;;;;;;5069699;28;20051;-67
2021/08/02 05:20:22;;;;;;;16.15;10.75;;;13.10;99.90;;;;;;5068550;28;20051;-66
2021/08/02 05:22:49;;;;;;;;;;;13.10;99.90;;;;;;5067941;28;20040;-66
2021/08/02 05:25:15;;;;;;;13.82;8.43;;;13.20;99.90;;;;;;5068747;28;19928;-66
2021/08/02 05:27:50;;;;;;;15.02;8.63;;;13.20;99.90;;;;;;5068406;28;20053;-66
2021/08/02 05:30:17;;;;;;;20.85;9.35;;;13.20;99.90;;;;;;5084652;28;20075;-66
2021/08/02 05:32:43;;;;;;;13.48;7.18;;;13.20;99.90;;;;;;5068726;28;20045;-66
2021/08/02 05:35:10;;;;;;;10.55;7.03;;;13.20;99.90;;;;;;5068543;28;20041;-67
2021/08/02 05:37:36;;;;;;;7.65;5.80;;;13.30;99.90;;;;;;5067175;28;20040;-68
2021/08/02 05:40:03;;;;;;;;;;;13.30;99.90;;;;;;5067789;28;20039;-66
2021/08/02 05:42:28;;;;;;;13.53;7.27;;;13.40;99.90;;;;;;5067754;28;19920;-67
2021/08/02 05:44:54;;;;;;;;;;;13.30;99.90;;;;;;5071474;28;20041;-68
2021/08/02 05:47:20;;;;;;;11.27;7.50;;;13.30;99.90;;;;;;5070946;28;19920;-67
2021/08/02 05:49:45;;;;;;;;;;;13.40;99.90;;;;;;5074117;28;20098;-66
2021/08/02 05:52:11;;;;;;;10.65;7.28;;;13.40;99.90;;;;;;5072087;28;19917;-67
2021/08/02 05:54:36;;;;;;;;;;;13.40;99.90;;;;;;5072945;28;20045;-67
2021/08/02 05:57:02;;;;;;;8.98;6.00;;;13.40;99.90;;;;;;5069813;28;19926;-66
2021/08/02 05:59:28;;;;;;;;;;;13.40;99.90;;;;;;5085976;28;20175;-66
2021/08/02 06:01:53;;;;;;;9.55;5.82;;;13.40;99.90;;;;;;5100765;28;20406;-67
2021/08/02 06:04:19;;;;;;;;;;;13.50;99.90;;;;;;5089386;28;20562;-66
2021/08/02 06:06:44;;;;;;;12.02;6.30;;;13.50;99.90;;;;;;5086685;28;19924;-66
2021/08/02 06:09:11;;;;;;;;;;;13.50;99.90;;;;;;5068026;28;20024;-67
2021/08/02 06:11:37;;;;;;;10.30;6.93;;;13.50;99.90;;;;;;5066811;28;19916;-67
2021/08/02 06:14:03;;;;;;;11.95;6.97;;;13.60;99.90;;;;;;5066298;28;20040;-67
2021/08/02 06:16:28;;;;;;;;;;;13.60;99.90;;;;;;5066269;28;20048;-67
2021/08/02 06:18:54;;;;;;;9.05;6.78;;;13.50;99.90;;;;;;5066757;28;19956;-67
2021/08/02 06:21:19;;;;;;;;;;;13.50;99.90;;;;;;5067118;28;20028;-67
2021/08/02 06:23:45;;;;;;;12.30;7.40;;;13.50;99.90;;;;;;5066747;28;19924;-67
2021/08/02 06:26:10;;;;;;;;;;;13.40;99.90;;;;;;5067135;28;20044;-66
2021/08/02 06:28:36;;;;;;;8.80;6.15;;;13.40;99.90;;;;;;5065884;28;20471;-68
2021/08/02 06:31:02;;;;;;;;;;;13.50;99.90;;;;;;5065790;28;20047;-68
2021/08/02 06:33:28;;;;;;;13.95;10.13;;;13.50;99.90;;;;;;5066487;28;19923;-67
2021/08/02 06:35:54;;;;;;;17.67;12.70;;;13.60;99.90;;;;;;5066649;28;20040;-66
2021/08/02 06:38:20;;;;;;;;;;;13.60;99.90;;;;;;5066829;28;20121;-66
2021/08/02 06:40:46;;;;;;;14.25;8.07;;;13.70;99.90;;;;;;5066303;28;19924;-66
2021/08/02 06:43:14;;;;;;;;;;;13.60;99.90;;;;;;5066642;28;20040;-66
2021/08/02 06:45:41;;;;;;;13.35;8.75;;;13.60;99.90;;;;;;5065506;28;19951;-67
2021/08/02 06:48:07;;;;;;;13.27;8.02;;;13.60;99.90;;;;;;5065550;28;20039;-68
2021/08/02 06:50:33;;;;;;;;;;;13.50;99.90;;;;;;5081921;28;20120;-67
2021/08/02 06:52:58;;;;;;;16.45;9.93;;;13.60;99.90;;;;;;5066516;28;19916;-68
2021/08/02 06:55:24;;;;;;;;;;;13.60;99.90;;;;;;5065439;28;20036;-66
2021/08/02 06:57:50;;;;;;;14.23;8.00;;;13.70;99.90;;;;;;5075922;28;19924;-66
2021/08/02 07:00:15;;;;;;;;;;;13.80;99.90;;;;;;5086192;28;20047;-67
2021/08/02 07:02:41;;;;;;;11.00;6.75;;;13.80;99.90;;;;;;5085784;28;20606;-66
2021/08/02 07:05:07;;;;;;;;;;;13.80;99.90;;;;;;5086869;28;20051;-66
2021/08/02 07:07:33;;;;;;;7.93;5.85;;;13.80;99.90;;;;;;5077865;28;20300;-66
2021/08/02 07:09:58;;;;;;;;;;;13.90;99.90;;;;;;5081424;28;20407;-67
2021/08/02 07:12:24;;;;;;;9.38;6.90;;;13.80;99.90;;;;;;5064737;28;19916;-67
2021/08/02 07:14:49;;;;;;;;;;;13.80;99.90;;;;;;5084030;28;20040;-66
2021/08/02 07:17:15;;;;;;;10.38;8.35;;;13.80;99.90;;;;;;5101641;28;19923;-67
2021/08/02 07:19:41;;;;;;;;;;;13.70;99.90;;;;;;5081799;28;20040;-67
2021/08/02 07:22:07;;;;;;;14.05;7.20;;;13.80;99.90;;;;;;5068989;28;19916;-67
2021/08/02 07:24:32;;;;;;;;;;;13.80;99.90;;;;;;5086168;28;20068;-66
2021/08/02 07:26:58;;;;;;;10.30;6.55;;;13.80;99.90;;;;;;5069143;28;19977;-67
2021/08/02 07:29:23;;;;;;;;;;;13.80;99.90;;;;;;5075160;28;20060;-66
2021/08/02 07:31:50;;;;;;;9.18;6.38;;;13.90;99.90;;;;;;5074025;28;19939;-66
2021/08/02 07:34:16;;;;;;;9.63;6.88;;;13.90;99.90;;;;;;5076468;28;20127;-66
2021/08/02 07:36:41;;;;;;;;;;;13.90;99.90;;;;;;5073961;28;20758;-64
2021/08/02 07:39:07;;;;;;;9.40;5.93;;;13.90;99.90;;;;;;5075583;28;19956;-69
2021/08/02 07:41:32;;;;;;;;;;;13.90;99.90;;;;;;5078169;28;20064;-69
2021/08/02 07:43:59;;;;;;;19.48;13.75;;;13.90;99.90;;;;;;5095348;28;19916;-71
2021/08/02 07:46:25;;;;;;;10.65;6.60;;;13.90;99.90;;;;;;5073647;28;20048;-71
2021/08/02 07:48:52;;;;;;;;;;;14.00;99.90;;;;;;5074716;28;20041;-70
2021/08/02 07:51:19;;;;;;;9.73;5.50;;;13.90;99.90;;;;;;5076594;28;20480;-70
2021/08/02 07:53:45;;;;;;;12.93;6.25;;;13.90;99.90;;;;;;5074771;28;20107;-69
2021/08/02 07:56:10;;;;;;;;;;;13.80;99.90;;;;;;5075258;28;20115;-69
2021/08/02 07:58:36;;;;;;;6.00;4.78;;;13.90;99.90;;;;;;5073351;28;20355;-69
2021/08/02 08:01:02;;;;;;;;;;;13.90;99.90;;;;;;5072392;28;20033;-71
2021/08/02 08:03:27;;;;;;;10.57;5.97;;;13.90;99.90;;;;;;5071737;28;19916;-70
2021/08/02 08:05:53;;;;;;;;;;;13.90;99.90;;;;;;5071759;28;20122;-71
2021/08/02 08:08:20;;;;;;;10.25;5.10;;;13.90;99.90;;;;;;5069362;28;19924;-70
2021/08/02 08:10:47;;;;;;;8.77;5.53;;;14.00;99.90;;;;;;5086221;28;20044;-69
2021/08/02 08:13:12;;;;;;;9.00;6.68;;;13.90;99.90;;;;;;5069164;28;20115;-69
2021/08/02 08:15:38;;;;;;;;;;;14.00;99.90;;;;;;5069198;28;20136;-70
2021/08/02 08:18:04;;;;;;;19.52;11.05;;;14.00;99.90;;;;;;5069388;28;20003;-69
2021/08/02 08:20:30;;;;;;;;;;;14.00;99.90;;;;;;5070742;28;20664;-69
2021/08/02 08:22:56;;;;;;;10.88;6.40;;;14.00;99.90;;;;;;5085115;28;20027;-71
2021/08/02 08:25:21;;;;;;;;;;;13.90;99.90;;;;;;5085392;28;20043;-70
2021/08/02 08:27:49;;;;;;;11.98;6.47;;;13.90;99.90;;;;;;5068817;28;20029;-71
2021/08/02 08:30:17;;;;;;;9.27;5.70;;;13.90;99.90;;;;;;5068829;28;20091;-68
2021/08/02 08:32:44;;;;;;;12.77;5.68;;;13.90;99.90;;;;;;5068860;28;20033;-68
2021/08/02 08:35:11;;;;;;;11.02;5.57;;;13.90;99.90;;;;;;5068177;28;20044;-68
2021/08/02 08:37:38;;;;;;;9.45;6.13;;;13.90;99.90;;;;;;5067586;28;20041;-69
2021/08/02 08:40:06;;;;;;;11.98;5.63;;;13.90;99.90;;;;;;5068177;28;20543;-64
2021/08/02 08:42:32;;;;;;;7.30;5.85;;;13.90;99.90;;;;;;5067801;28;20044;-66
2021/08/02 08:44:58;;;;;;;11.45;6.13;;;13.90;99.90;;;;;;5068627;28;20071;-67
2021/08/02 08:47:24;;;;;;;;;;;13.80;99.90;;;;;;5067872;28;20072;-64
2021/08/02 08:49:50;;;;;;;9.27;5.70;;;13.90;99.90;;;;;;5084131;28;20658;-65
2021/08/02 08:52:15;;;;;;;;;;;13.90;99.90;;;;;;5065732;28;20034;-65
2021/08/02 08:54:42;;;;;;;8.13;5.57;;;13.90;99.90;;;;;;5067840;28;19927;-62
2021/08/02 08:57:12;;;;;;;10.82;6.38;;;13.90;99.90;;;;;;5072752;28;20044;-65
2021/08/02 08:59:52;;;;;;;8.48;5.93;;;14.00;99.90;;;;;;5088485;28;20037;-67
2021/08/02 09:02:28;;;;;;;10.18;5.97;;;14.00;99.90;;;;;;5087411;28;20032;-67
2021/08/02 09:04:56;;;;;;;11.48;5.70;;;14.10;99.90;;;;;;5089448;28;20052;-66
2021/08/02 09:07:39;;;;;;;14.77;10.13;;;14.10;99.90;;;;;;5069620;28;20049;-66
2021/08/02 09:10:10;;;;;;;13.07;7.50;;;14.20;99.90;;;;;;5066244;28;20041;-67
2021/08/02 09:12:46;;;;;;;7.93;5.90;;;14.20;99.90;;;;;;5062049;28;20044;-67
2021/08/02 09:15:12;;;;;;;7.63;6.15;;;14.30;99.90;;;;;;5067483;28;20044;-68
2021/08/02 09:17:38;;;;;;;;;;;14.30;99.90;;;;;;5050955;28;20033;-67
2021/08/02 09:20:19;;;;;;;12.23;7.60;;;14.40;99.90;;;;;;5062930;28;19962;-67
2021/08/02 09:22:45;;;;;;;10.32;6.53;;;14.40;99.90;;;;;;5071789;28;20036;-67
2021/08/02 09:25:24;;;;;;;10.10;6.63;;;14.40;99.90;;;;;;5071238;28;20037;-67
2021/08/02 09:27:50;;;;;;;14.35;8.48;;;14.30;99.90;;;;;;5068358;28;20040;-68
2021/08/02 09:30:22;;;;;;;8.48;6.28;;;14.20;99.90;;;;;;5068020;28;20575;-68
2021/08/02 09:33:04;;;;;;;13.38;6.65;;;14.20;99.90;;;;;;5067963;28;20125;-67
2021/08/02 09:35:41;;;;;;;11.38;6.82;;;14.30;99.90;;;;;;5068348;28;20126;-67
2021/08/02 09:38:12;;;;;;;11.10;6.07;;;14.40;99.90;;;;;;5066588;28;20036;-67
2021/08/02 09:40:49;;;;;;;11.80;6.28;;;14.30;99.90;;;;;;5067126;28;20049;-67
2021/08/02 09:43:23;;;;;;;11.25;7.03;;;14.20;99.90;;;;;;5066637;28;20051;-67
2021/08/02 09:45:50;;;;;;;13.57;6.55;;;14.30;99.90;;;;;;5066072;28;20047;-67
2021/08/02 09:48:17;;;;;;;12.57;6.90;;;14.30;99.90;;;;;;5066349;28;20098;-67
2021/08/02 09:50:45;;;;;;;11.80;6.45;;;14.30;99.90;;;;;;5066232;28;20511;-68
2021/08/02 09:53:17;;;;;;;8.27;6.25;;;14.50;99.90;;;;;;5066170;28;20095;-67
2021/08/02 09:55:44;;;;;;;9.32;5.95;;;14.60;99.90;;;;;;5065616;28;20032;-66
2021/08/02 09:58:14;;;;;;;10.15;6.78;;;14.50;99.90;;;;;;5079356;28;20036;-67
2021/08/02 10:00:40;;;;;;;8.20;5.93;;;14.60;99.90;;;;;;5086457;28;20040;-66
2021/08/02 10:03:06;;;;;;;10.75;6.40;;;14.50;99.90;;;;;;5086059;28;20048;-67
2021/08/02 10:05:31;;;;;;;;;;;14.50;99.90;;;;;;5086911;28;20048;-67
2021/08/02 10:07:58;;;;;;;11.50;7.30;;;14.40;99.90;;;;;;5074388;28;19916;-67
2021/08/02 10:10:24;;;;;;;16.17;7.95;;;14.30;99.90;;;;;;5056943;28;20171;-67
2021/08/02 10:12:49;;;;;;;;;;;14.30;99.90;;;;;;5077950;28;20045;-67
2021/08/02 10:15:18;;;;;;;10.00;6.85;;;14.30;99.90;;;;;;5065257;28;20475;-67
2021/08/02 10:17:49;;;;;;;11.90;7.53;;;14.20;99.90;;;;;;5065500;28;20048;-67
2021/08/02 10:20:29;;;;;;;15.32;8.40;;;14.30;99.90;;;;;;5065494;28;20043;-66
2021/08/02 10:22:56;;;;;;;10.32;6.47;;;14.30;99.90;;;;;;5065661;28;20044;-67
2021/08/02 10:25:40;;;;;;;14.65;7.90;;;14.20;99.90;;;;;;5065202;28;20578;-66
2021/08/02 10:28:23;;;;;;;10.30;6.40;;;14.30;99.90;;;;;;5065749;28;20643;-67
2021/08/02 10:31:09;;;;;;;8.20;6.35;;;14.20;99.90;;;;;;5064549;28;20033;-67
2021/08/02 10:33:37;;;;;;;11.32;6.63;;;14.30;99.90;;;;;;5064622;28;20399;-67
2021/08/02 10:36:13;;;;;;;9.88;6.80;;;14.30;99.90;;;;;;5064699;28;20048;-67
2021/08/02 10:38:42;;;;;;;;;;;14.30;99.90;;;;;;5064804;28;20123;-66
2021/08/02 10:41:08;;;;;;;10.45;5.72;;;14.40;99.90;;;;;;5065950;28;19916;-67
2021/08/02 10:43:34;;;;;;;;;;;14.30;99.90;;;;;;5066056;28;20036;-66
2021/08/02 10:46:01;;;;;;;8.13;4.93;;;14.30;99.90;;;;;;5065150;28;19924;-67
2021/08/02 10:48:29;;;;;;;6.80;5.38;;;14.30;99.90;;;;;;5065381;28;20086;-67
2021/08/02 10:50:56;;;;;;;7.20;4.60;;;14.40;99.90;;;;;;5065657;28;20043;-67
2021/08/02 10:53:22;;;;;;;7.78;4.97;;;14.40;99.90;;;;;;5065500;28;20036;-68
2021/08/02 10:55:53;;;;;;;10.15;5.90;;;14.50;99.90;;;;;;5066272;28;20098;-67
2021/08/02 10:58:25;;;;;;;7.97;5.05;;;14.60;99.90;;;;;;5064968;28;20044;-67
2021/08/02 11:00:58;;;;;;;7.63;5.03;;;14.60;99.90;;;;;;5064781;28;20044;-66
2021/08/02 11:03:36;;;;;;;9.52;5.93;;;14.70;99.90;;;;;;5044647;28;20045;-67
2021/08/02 11:06:16;;;;;;;8.10;5.57;;;14.80;99.90;;;;;;5045917;28;20548;-67
2021/08/02 11:08:44;;;;;;;10.68;5.38;;;14.80;99.90;;;;;;5064961;28;20119;-67
2021/08/02 11:11:10;;;;;;;8.40;5.30;;;14.90;99.90;;;;;;5066169;28;20032;-67
2021/08/02 11:13:36;;;;;;;8.98;5.53;;;15.10;99.90;;;;;;5072465;28;20040;-67
2021/08/02 11:16:04;;;;;;;;;;;15.50;99.90;;;;;;5085689;28;20047;-67
2021/08/02 11:18:29;;;;;;;;;;;15.70;99.90;;;;;;5087074;28;20738;-67
2021/08/02 11:20:55;;;;;;;12.18;6.97;;;15.80;99.90;;;;;;5070028;28;19943;-66
2021/08/02 11:23:34;;;;;;;9.70;5.80;;;16.10;99.90;;;;;;5065914;28;20504;-66
2021/08/02 11:26:10;;;;;;;10.93;5.63;;;16.20;99.90;;;;;;5065138;28;20140;-66
2021/08/02 11:28:44;;;;;;;15.98;12.00;;;16.40;99.90;;;;;;5065269;28;20098;-66
2021/08/02 11:31:10;;;;;;;10.07;6.55;;;16.30;99.90;;;;;;5064417;28;20115;-67
2021/08/02 11:33:37;;;;;;;11.63;5.80;;;16.50;99.90;;;;;;5064083;28;20048;-67
2021/08/02 11:36:05;;;;;;;9.73;5.53;;;16.50;99.90;;;;;;5065140;28;20524;-67
2021/08/02 11:38:35;;;;;;;7.57;4.85;;;16.30;99.90;;;;;;5065477;28;20492;-67
2021/08/02 11:41:01;;;;;;;6.88;4.25;;;16.30;99.90;;;;;;5065686;28;20944;-67
2021/08/02 11:43:26;;;;;;;;;;;16.40;99.90;;;;;;5065939;28;20035;-67
2021/08/02 11:45:52;;;;;;;6.75;4.57;;;16.30;99.90;;;;;;5064699;28;19927;-67
2021/08/02 11:48:17;;;;;;;;;;;16.30;99.90;;;;;;5065146;28;20048;-67
2021/08/02 11:50:43;;;;;;;9.73;4.80;;;16.10;99.90;;;;;;5064816;28;19963;-66
2021/08/02 11:53:09;;;;;;;;;;;16.20;99.90;;;;;;5064415;28;20040;-66
2021/08/02 11:55:35;;;;;;;8.95;4.30;;;16.10;99.90;;;;;;5064679;28;19917;-67
2021/08/02 11:58:03;;;;;;;6.03;4.63;;;15.90;99.90;;;;;;5064188;28;20131;-67
2021/08/02 12:00:29;;;;;;;11.63;4.30;;;15.90;99.90;;;;;;5064120;28;20044;-67
2021/08/02 12:03:05;;;;;;;;;;;16.00;99.90;;;;;;5063919;28;20040;-67
2021/08/02 12:05:30;;;;;;;10.15;5.22;;;15.90;99.90;;;;;;5064474;28;19942;-67
2021/08/02 12:08:08;;;;;;;;;;;15.90;99.90;;;;;;5080476;28;20814;-67
2021/08/02 12:10:34;;;;;;;7.30;5.78;;;15.90;99.90;;;;;;5058080;28;19920;-67
2021/08/02 12:13:01;;;;;;;7.05;5.45;;;15.80;99.90;;;;;;5062483;28;20524;-66
2021/08/02 12:15:27;;;;;;;7.60;5.20;;;15.80;99.90;;;;;;5068449;28;20036;-67
2021/08/02 12:17:54;;;;;;;6.90;5.15;;;15.80;99.90;;;;;;5068498;28;20063;-67
2021/08/02 12:20:35;;;;;;;9.82;5.70;;;15.80;99.90;;;;;;5083373;28;20048;-67
2021/08/02 12:23:05;;;;;;;11.82;5.40;;;15.80;99.90;;;;;;5067391;28;20055;-67
2021/08/02 12:25:40;;;;;;;8.65;5.57;;;16.10;99.90;;;;;;5067306;28;20037;-66
2021/08/02 12:28:06;;;;;;;11.45;6.63;;;16.20;99.90;;;;;;5067051;28;20041;-67
2021/08/02 12:30:33;;;;;;;12.73;7.15;;;16.40;99.90;;;;;;5066408;28;20041;-66
2021/08/02 12:32:59;;;;;;;9.00;7.00;;;16.50;99.90;;;;;;5065812;28;20033;-66
2021/08/02 12:35:25;;;;;;;;;;;16.40;99.90;;;;;;5068177;28;20047;-67
2021/08/02 12:37:50;;;;;;;9.27;6.13;;;16.40;99.90;;;;;;5067909;28;19920;-67
2021/08/02 12:40:17;;;;;;;;;;;16.30;99.90;;;;;;5068846;28;20583;-67
2021/08/02 12:42:46;;;;;;;11.10;6.17;;;16.40;99.90;;;;;;5066982;28;19917;-67
2021/08/02 12:45:14;;;;;;;12.57;7.70;;;16.30;99.90;;;;;;5066573;28;20043;-67
2021/08/02 12:47:40;;;;;;;11.77;8.63;;;16.20;99.90;;;;;;5067491;28;20072;-67
2021/08/02 12:50:08;;;;;;;8.65;6.25;;;16.10;99.90;;;;;;5065297;28;20040;-67
2021/08/02 12:52:34;;;;;;;12.82;7.00;;;16.30;99.90;;;;;;5066777;28;20044;-66
2021/08/02 12:55:01;;;;;;;13.27;6.03;;;16.50;99.90;;;;;;5068239;28;20143;-67
2021/08/02 12:57:28;;;;;;;13.25;5.50;;;16.40;99.90;;;;;;5076495;28;20080;-67
2021/08/02 12:59:58;;;;;;;9.38;5.38;;;16.40;99.90;;;;;;5087489;28;20166;-67
2021/08/02 13:02:30;;;;;;;8.10;5.82;;;16.30;99.90;;;;;;5087998;28;20093;-67
2021/08/02 13:04:57;;;;;;;12.40;5.43;;;16.20;99.90;;;;;;5103704;28;20052;-66
2021/08/02 13:07:24;;;;;;;6.60;5.55;;;16.20;99.90;;;;;;5081217;28;20071;-66